createdAt,value
2018-08-25T00:00:01.152Z,0.8
2018-08-25T00:05:01.096Z,1.1
2018-08-25T00:10:01.166Z,1.0
2018-08-25T00:15:01.164Z,1.0
2018-08-25T00:20:01.192Z,1.0
2018-08-25T00:25:01.190Z,1.0
2018-08-25T00:30:01.250Z,0.8
2018-08-25T00:35:01.131Z,0.8
2018-08-25T00:45:01.220Z,0.4
2018-08-25T00:50:01.151Z,0.2
2018-08-25T00:55:01.150Z,0.0
2018-08-25T01:00:01.195Z,0.0
2018-08-25T01:05:01.201Z,0.2
2018-08-25T01:10:01.142Z,0.4
2018-08-25T01:15:01.167Z,0.4
2018-08-25T01:25:01.304Z,0.4
2018-08-25T01:30:01.402Z,0.2
2018-08-25T01:35:01.222Z,0.0
2018-08-25T01:40:01.289Z,0.0
2018-08-25T01:45:01.205Z,0.0
2018-08-25T02:00:01.247Z,0.0
2018-08-25T02:05:01.185Z,0.0
2018-08-25T02:15:01.264Z,0.1
2018-08-25T02:20:01.313Z,0.3
2018-08-25T02:30:01.287Z,0.6
2018-08-25T02:35:01.222Z,1.0
2018-08-25T02:45:01.221Z,1.0
2018-08-25T02:50:01.291Z,0.8
2018-08-25T02:55:01.200Z,0.8
2018-08-25T03:00:01.262Z,0.6
2018-08-25T03:05:01.198Z,0.6
2018-08-25T03:10:01.270Z,0.8
2018-08-25T03:15:01.211Z,1.0
2018-08-25T03:20:01.345Z,0.9
2018-08-25T03:25:01.206Z,0.9
2018-08-25T03:30:01.207Z,0.7
2018-08-25T03:40:01.348Z,0.7
2018-08-25T03:45:01.211Z,0.8
2018-08-25T03:50:01.289Z,1.0
2018-08-25T03:55:01.215Z,1.5
2018-08-25T04:00:01.386Z,1.7
2018-08-25T04:05:01.227Z,1.9
2018-08-25T04:10:01.218Z,2.1
2018-08-25T04:15:01.748Z,2.1
2018-08-25T04:20:01.380Z,2.0
2018-08-25T04:25:01.236Z,2.4
2018-08-25T04:30:01.291Z,2.8
2018-08-25T04:35:01.239Z,3.2
2018-08-25T04:40:01.301Z,3.9
2018-08-25T04:45:01.223Z,4.6
2018-08-25T04:50:01.292Z,4.4
2018-08-25T04:55:01.229Z,4.4
2018-08-25T05:00:01.385Z,4.2
2018-08-25T05:05:01.201Z,4.0
2018-08-25T05:10:01.346Z,4.1
2018-08-25T05:15:01.263Z,4.5
2018-08-25T05:20:01.323Z,4.7
2018-08-25T05:25:01.263Z,5.2
2018-08-25T05:30:01.399Z,5.3
2018-08-25T05:35:01.278Z,5.2
2018-08-25T05:40:01.343Z,5.2
2018-08-25T05:45:01.277Z,5.1
2018-08-25T05:50:01.408Z,4.8
2018-08-25T05:55:01.277Z,4.4
2018-08-25T06:00:01.403Z,4.1
2018-08-25T06:05:01.272Z,3.9
2018-08-25T06:10:01.343Z,3.5
2018-08-25T06:15:01.274Z,3.1
2018-08-25T06:20:01.293Z,2.9
2018-08-25T06:25:01.275Z,2.8
2018-08-25T06:30:01.539Z,2.8
2018-08-25T06:35:01.261Z,3.0
2018-08-25T06:40:01.448Z,3.4
2018-08-25T06:45:01.302Z,3.7
2018-08-25T06:50:01.357Z,3.5
2018-08-25T06:55:01.292Z,3.3
2018-08-25T07:00:01.295Z,3.4
2018-08-25T07:05:01.285Z,3.2
2018-08-25T07:10:01.423Z,3.0
2018-08-25T07:15:01.269Z,3.2
2018-08-25T07:20:01.423Z,3.2
2018-08-25T07:25:01.296Z,3.2
2018-08-25T07:30:01.296Z,3.4
2018-08-25T07:35:01.298Z,3.4
2018-08-25T07:40:01.266Z,3.4
2018-08-25T07:45:01.302Z,3.6
2018-08-25T07:50:01.412Z,3.5
2018-08-25T07:55:01.280Z,3.4
2018-08-25T08:00:01.374Z,3.5
2018-08-25T08:05:01.280Z,3.7
2018-08-25T08:10:01.371Z,3.5
2018-08-25T08:15:01.283Z,3.6
2018-08-25T08:20:01.413Z,3.5
2018-08-25T08:25:01.281Z,3.3
2018-08-25T08:30:01.367Z,3.2
2018-08-25T08:35:01.326Z,3.4
2018-08-25T08:40:01.452Z,3.4
2018-08-25T08:45:01.330Z,3.6
2018-08-25T08:50:01.906Z,4.1
2018-08-25T08:55:01.329Z,4.4
2018-08-25T09:00:01.413Z,4.4
2018-08-25T09:05:01.335Z,4.4
2018-08-25T09:10:01.365Z,4.4
2018-08-25T09:15:01.341Z,4.2
2018-08-25T09:20:01.394Z,4.2
2018-08-25T09:25:01.366Z,4.2
2018-08-25T09:30:01.422Z,4.4
2018-08-25T09:35:01.357Z,4.5
2018-08-25T09:40:01.545Z,4.8
2018-08-25T09:45:01.386Z,4.8
2018-08-25T09:50:01.364Z,5.0
2018-08-25T09:55:01.357Z,5.1
2018-08-25T10:00:01.416Z,5.6
2018-08-25T10:05:01.387Z,5.8
2018-08-25T10:10:01.485Z,5.9
2018-08-25T10:15:01.357Z,5.8
2018-08-25T10:20:01.385Z,5.1
2018-08-25T10:25:01.363Z,4.2
2018-08-25T10:30:01.417Z,3.2
2018-08-25T10:35:01.379Z,2.6
2018-08-25T10:40:01.438Z,2.1
2018-08-25T10:45:01.405Z,1.9
2018-08-25T10:50:01.367Z,2.0
2018-08-25T10:55:01.343Z,2.2
2018-08-25T11:00:01.761Z,2.4
2018-08-25T11:10:01.407Z,2.6
2018-08-25T11:15:01.350Z,2.6
2018-08-25T11:20:01.409Z,2.4
2018-08-25T11:25:01.342Z,2.4
2018-08-25T11:30:01.476Z,2.6
2018-08-25T11:35:01.325Z,3.0
2018-08-25T11:40:01.465Z,3.2
2018-08-25T11:45:01.363Z,3.6
2018-08-25T11:50:01.379Z,3.6
2018-08-25T11:55:01.356Z,3.6
2018-08-25T12:00:01.488Z,3.5
2018-08-25T12:05:01.359Z,3.5
2018-08-25T12:10:01.430Z,3.5
2018-08-25T12:15:01.365Z,3.4
2018-08-25T12:20:01.424Z,3.2
2018-08-25T12:25:01.687Z,2.8
2018-08-25T12:30:01.615Z,2.2
2018-08-25T12:35:01.373Z,1.8
2018-08-25T12:40:01.593Z,1.6
2018-08-25T12:45:01.622Z,1.6
2018-08-25T12:55:01.453Z,1.8
2018-08-25T13:00:01.411Z,1.6
2018-08-25T13:05:01.419Z,1.4
2018-08-25T13:10:01.512Z,1.2
2018-08-25T13:15:01.458Z,1.2
2018-08-25T13:20:01.449Z,1.2
2018-08-25T13:25:01.889Z,1.4
2018-08-25T13:30:01.449Z,1.6
2018-08-25T13:35:01.394Z,1.8
2018-08-25T13:40:01.916Z,2.0
2018-08-25T13:45:01.395Z,2.0
2018-08-25T13:50:01.376Z,2.2
2018-08-25T13:55:06.447Z,2.4
2018-08-25T14:00:06.641Z,2.4
2018-08-25T14:05:01.384Z,2.2
2018-08-25T14:10:01.379Z,1.8
2018-08-25T14:15:06.379Z,1.2
2018-08-25T14:20:01.384Z,0.6
2018-08-25T14:25:01.452Z,0.6
2018-08-25T14:30:01.472Z,0.8
2018-08-25T14:35:01.394Z,1.2
2018-08-25T14:40:01.521Z,1.8
2018-08-25T14:45:01.387Z,2.2
2018-08-25T14:50:01.651Z,2.2
2018-08-25T14:55:01.391Z,2.2
2018-08-25T15:00:01.466Z,2.4
2018-08-25T15:05:01.392Z,2.4
2018-08-25T15:10:01.473Z,2.4
2018-08-25T15:15:06.388Z,2.6
2018-08-25T15:20:01.420Z,2.6
2018-08-25T15:25:01.418Z,2.6
2018-08-25T15:30:01.419Z,2.6
2018-08-25T15:40:01.445Z,2.4
2018-08-25T15:45:06.409Z,2.1
2018-08-25T15:50:06.455Z,1.9
2018-08-25T15:55:01.528Z,1.7
2018-08-25T16:00:01.397Z,1.5
2018-08-25T16:05:01.380Z,1.2
2018-08-25T16:15:01.508Z,0.9
2018-08-25T16:20:02.377Z,0.6
2018-08-25T16:25:01.383Z,0.4
2018-08-25T16:30:01.520Z,0.5
2018-08-25T16:35:06.395Z,0.3
2018-08-25T16:45:01.583Z,0.4
2018-08-25T17:00:01.447Z,1.0
2018-08-25T17:15:06.714Z,0.8
2018-08-25T17:25:06.526Z,0.0
2018-08-25T17:30:06.463Z,0.0
2018-08-25T17:35:01.400Z,0.0
2018-08-25T17:40:06.394Z,0.0
2018-08-25T17:45:01.736Z,0.1
2018-08-25T17:50:01.505Z,0.1
2018-08-25T18:00:01.448Z,0.2
2018-08-25T18:05:01.411Z,0.9
2018-08-25T18:10:06.464Z,1.7
2018-08-25T18:15:01.441Z,2.1
2018-08-25T18:20:01.488Z,2.3
2018-08-25T18:25:01.429Z,2.4
2018-08-25T18:30:01.550Z,2.0
2018-08-25T18:35:01.433Z,1.2
2018-08-25T18:40:06.529Z,1.0
2018-08-25T18:45:01.428Z,1.0
2018-08-25T18:50:01.516Z,1.0
2018-08-25T18:55:01.546Z,1.2
2018-08-25T19:00:01.422Z,1.4
2018-08-25T19:05:01.413Z,1.4
2018-08-25T19:10:01.414Z,1.4
2018-08-25T19:15:01.387Z,1.4
2018-08-25T19:20:01.390Z,1.4
2018-08-25T19:25:01.394Z,1.2
2018-08-25T19:30:01.460Z,1.2
2018-08-25T19:35:01.390Z,1.2
2018-08-25T19:40:01.506Z,1.6
2018-08-25T19:45:01.379Z,1.6
2018-08-25T19:55:01.508Z,1.8
2018-08-25T20:00:01.448Z,1.8
2018-08-25T20:05:01.385Z,1.4
2018-08-25T20:10:01.412Z,1.0
2018-08-25T20:15:01.395Z,0.7
2018-08-25T20:25:01.388Z,0.4
2018-08-25T20:30:01.394Z,0.4
2018-08-25T20:35:01.389Z,0.4
2018-08-25T20:40:01.385Z,0.5
2018-08-25T20:45:01.384Z,0.6
2018-08-25T20:50:01.380Z,0.5
2018-08-25T20:55:01.416Z,0.3
2018-08-25T21:00:01.385Z,0.5
2018-08-25T21:05:01.386Z,0.7
2018-08-25T21:10:01.385Z,1.0
2018-08-25T21:15:01.387Z,1.2
2018-08-25T21:30:01.392Z,0.8
2018-08-25T21:35:01.402Z,0.4
2018-08-25T21:40:01.454Z,0.2
2018-08-25T21:45:01.381Z,0.0
2018-08-25T21:55:01.482Z,0.0
2018-08-25T22:00:01.406Z,0.0
2018-08-25T22:05:01.385Z,0.0
2018-08-25T22:10:01.389Z,0.0
2018-08-25T22:15:01.382Z,0.0
2018-08-25T22:20:01.394Z,0.1
2018-08-25T22:25:01.409Z,0.1
2018-08-25T22:30:01.448Z,0.1
2018-08-25T22:35:01.384Z,0.1
2018-08-25T22:45:06.493Z,0.0
2018-08-25T22:50:06.391Z,0.1
2018-08-25T22:55:06.392Z,0.1
2018-08-25T23:00:01.403Z,0.2
2018-08-25T23:05:06.407Z,0.3
2018-08-25T23:10:01.503Z,0.3
2018-08-25T23:15:01.422Z,0.2
2018-08-25T23:20:01.547Z,0.4
2018-08-25T23:25:01.419Z,0.5
2018-08-25T23:30:01.420Z,0.5
2018-08-25T23:35:06.417Z,0.7
2018-08-25T23:40:06.518Z,0.7
2018-08-25T23:45:01.428Z,0.5
2018-08-25T23:55:01.514Z,0.3
